Time;durP1;ratioP1;P1;durP2;ratioP2;P2;SDS_P1;SDS_P2;PMS_P1;PMS_P2;Temp;Humidity;BMP_temperature;BMP_pressure;BME280_temperature;BME280_humidity;BME280_pressure;Samples;Min_cycle;Max_cycle;Signal;HPM_P1;HPM_P2
2021/12/15 00:02:18;;;;;;;74.10;46.57;;;;;;;;;;4994705;28;20446;-91
2021/12/15 00:04:45;;;;;;;59.57;43.20;;;;;;;;;;4994730;28;20863;-90
2021/12/15 00:07:13;;;;;;;63.60;43.87;;;;;;;;;;4994693;28;20481;-90
2021/12/15 00:09:40;;;;;;;65.30;43.10;;;;;;;;;;4994403;28;20452;-91
2021/12/15 00:12:13;;;;;;;65.40;43.93;;;;;;;;;;4994153;28;20504;-90
2021/12/15 00:14:41;;;;;;;54.17;42.63;;;;;;;;;;4993690;28;20501;-91
2021/12/15 00:17:08;;;;;;;52.90;43.30;;;;;;;;;;4994207;28;20419;-91
2021/12/15 00:19:36;;;;;;;57.27;44.23;;;;;;;;;;4994191;28;20427;-90
2021/12/15 00:22:04;;;;;;;70.77;43.27;;;;;;;;;;4994433;28;20452;-90
2021/12/15 00:24:31;;;;;;;64.33;44.50;;;;;;;;;;4994089;28;20456;-89
2021/12/15 00:26:59;;;;;;;68.33;45.27;;;;;;;;;;4976841;28;20427;-90
2021/12/15 00:29:28;;;;;;;62.77;43.27;;;;;;;;;;4994381;28;20416;-90
2021/12/15 00:31:57;;;;;;;53.37;43.23;;;;;;;;;;4993815;28;20515;-91
2021/12/15 00:34:25;;;;;;;55.47;43.90;;;;;;;;;;4976730;28;20471;-90
2021/12/15 00:36:52;;;;;;;66.80;43.13;;;;;;;;;;4994223;28;20427;-91
2021/12/15 00:39:21;;;;;;;47.80;40.37;;;;;;;;;;4994219;28;20430;-91
2021/12/15 00:41:49;;;;;;;51.27;40.43;;;;;;;;;;4994017;28;20452;-91
2021/12/15 00:44:16;;;;;;;58.47;41.53;;;;;;;;;;4993879;28;20427;-90
2021/12/15 00:46:45;;;;;;;49.67;39.60;;;;;;;;;;4993916;28;20426;-90
2021/12/15 00:49:13;;;;;;;55.30;43.50;;;;;;;;;;4994323;28;20437;-90
2021/12/15 00:51:42;;;;;;;51.30;39.40;;;;;;;;;;4993799;28;21186;-90
2021/12/15 00:54:11;;;;;;;55.13;42.00;;;;;;;;;;4993908;28;20494;-90
2021/12/15 00:56:39;;;;;;;48.03;39.87;;;;;;;;;;4976529;28;20935;-90
2021/12/15 00:59:07;;;;;;;50.90;40.47;;;;;;;;;;4993792;28;20459;-90
2021/12/15 01:01:35;;;;;;;45.57;40.40;;;;;;;;;;4993986;28;20433;-90
2021/12/15 01:04:04;;;;;;;45.60;37.90;;;;;;;;;;4993568;28;20437;-90
2021/12/15 01:06:32;;;;;;;48.77;40.80;;;;;;;;;;4993660;28;20460;-90
2021/12/15 01:09:03;;;;;;;47.47;42.53;;;;;;;;;;4993242;28;20412;-91
2021/12/15 01:11:48;;;;;;;51.33;41.00;;;;;;;;;;4993358;28;21001;-90
2021/12/15 01:14:33;;;;;;;53.07;42.77;;;;;;;;;;4993389;28;20467;-90
2021/12/15 01:19:52;;;;;;;47.73;41.17;;;;;;;;;;4993618;28;20423;-90
2021/12/15 01:22:23;;;;;;;52.47;42.13;;;;;;;;;;4993541;28;20446;-90
2021/12/15 01:24:50;;;;;;;45.33;40.10;;;;;;;;;;4978482;28;20448;-90
2021/12/15 01:27:17;;;;;;;78.27;70.90;;;;;;;;;;4997416;28;20431;-90
2021/12/15 01:29:45;;;;;;;355.25;184.40;;;;;;;;;;4997711;28;20436;-90
2021/12/15 01:32:12;;;;;;;167.10;131.07;;;;;;;;;;4997094;28;20687;-90
2021/12/15 01:34:40;;;;;;;178.55;136.88;;;;;;;;;;4997446;28;20198;-90
2021/12/15 01:37:09;;;;;;;152.63;136.63;;;;;;;;;;4997308;28;20202;-90
2021/12/15 01:39:37;;;;;;;159.30;127.95;;;;;;;;;;4997596;28;20445;-90
2021/12/15 01:42:05;;;;;;;152.70;135.27;;;;;;;;;;4997204;28;20673;-90
2021/12/15 01:47:18;;;;;;;152.07;136.67;;;;;;;;;;4997156;28;20402;-90
2021/12/15 01:49:46;;;;;;;38.90;35.20;;;;;;;;;;4997178;28;20468;-91
2021/12/15 01:52:20;;;;;;;40.73;36.43;;;;;;;;;;4996819;28;20454;-90
2021/12/15 01:54:50;;;;;;;42.73;37.07;;;;;;;;;;4979870;28;20459;-90
2021/12/15 01:57:18;;;;;;;45.20;38.73;;;;;;;;;;4997304;28;20415;-91
2021/12/15 01:59:46;;;;;;;37.37;33.57;;;;;;;;;;4996967;28;20440;-90
2021/12/15 02:02:14;;;;;;;50.80;41.87;;;;;;;;;;4997037;28;20431;-90
2021/12/15 02:04:42;;;;;;;37.60;33.63;;;;;;;;;;4979821;28;20460;-90
2021/12/15 02:07:12;;;;;;;46.53;38.20;;;;;;;;;;4996658;28;20973;-88
2021/12/15 02:12:37;;;;;;;45.60;39.97;;;;;;;;;;4917944;29;21045;-90
2021/12/15 02:15:06;;;;;;;49.80;38.13;;;;;;;;;;4917810;29;20489;-90
2021/12/15 02:17:34;;;;;;;43.97;37.97;;;;;;;;;;4917907;29;20451;-91
2021/12/15 02:20:01;;;;;;;51.70;41.20;;;;;;;;;;4917989;29;20452;-90
2021/12/15 02:22:31;;;;;;;58.33;42.97;;;;;;;;;;4917557;29;20468;-90
2021/12/15 02:24:58;;;;;;;60.77;44.57;;;;;;;;;;4917864;29;20441;-90
2021/12/15 02:27:32;;;;;;;51.37;42.13;;;;;;;;;;4901877;29;20793;-90
2021/12/15 02:30:08;;;;;;;57.53;42.40;;;;;;;;;;4917618;29;20937;-90
2021/12/15 02:32:48;;;;;;;59.90;43.10;;;;;;;;;;4917471;29;21167;-90
2021/12/15 02:38:02;;;;;;;55.33;42.93;;;;;;;;;;4917814;29;20414;-90
2021/12/15 02:40:30;;;;;;;47.20;39.80;;;;;;;;;;4917587;29;20937;-90
2021/12/15 02:42:58;;;;;;;53.50;42.83;;;;;;;;;;4917336;29;20572;-90
2021/12/15 02:45:25;;;;;;;57.30;43.57;;;;;;;;;;4917328;29;20448;-89
2021/12/15 02:47:53;;;;;;;63.27;46.70;;;;;;;;;;4922168;28;20436;-90
2021/12/15 02:50:23;;;;;;;57.30;43.67;;;;;;;;;;4976873;28;20431;-91
2021/12/15 02:52:50;;;;;;;58.63;47.23;;;;;;;;;;4976724;28;20460;-90
2021/12/15 02:55:20;;;;;;;65.60;47.80;;;;;;;;;;4976829;28;20446;-90
2021/12/15 02:57:48;;;;;;;69.17;48.67;;;;;;;;;;4976611;28;20445;-90
2021/12/15 03:00:19;;;;;;;63.30;46.93;;;;;;;;;;4976251;28;20449;-89
2021/12/15 03:03:12;;;;;;;73.40;49.50;;;;;;;;;;4976559;28;20450;-90
2021/12/15 03:05:44;;;;;;;67.70;47.60;;;;;;;;;;4975245;28;20460;-90
2021/12/15 03:08:16;;;;;;;70.83;50.23;;;;;;;;;;4976486;28;20462;-91
2021/12/15 03:16:31;;;;;;;61.40;46.77;;;;;;;;;;4936054;29;20413;-90
2021/12/15 03:18:58;;;;;;;146.23;96.27;;;;;;;;;;4935724;29;20443;-90
2021/12/15 03:21:27;;;;;;;394.80;184.52;;;;;;;;;;4935818;29;20458;-90
2021/12/15 03:23:56;;;;;;;64.63;48.40;;;;;;;;;;4935953;29;20196;-90
2021/12/15 03:26:28;;;;;;;62.20;47.47;;;;;;;;;;4935825;29;20466;-91
2021/12/15 03:34:41;;;;;;;64.13;48.10;;;;;;;;;;4935418;29;20469;-90
2021/12/15 03:37:22;;;;;;;73.57;49.70;;;;;;;;;;4935330;29;20512;-90
2021/12/15 03:39:51;;;;;;;57.97;45.27;;;;;;;;;;4935340;29;20958;-90
2021/12/15 03:42:27;;;;;;;70.97;51.47;;;;;;;;;;4935661;29;20437;-90
2021/12/15 03:44:55;;;;;;;66.63;50.20;;;;;;;;;;4959142;28;20932;-90
2021/12/15 03:47:25;;;;;;;65.10;48.20;;;;;;;;;;4975883;28;20465;-89
2021/12/15 03:49:52;;;;;;;66.70;51.27;;;;;;;;;;4975430;28;20440;-90
2021/12/15 03:52:20;;;;;;;64.17;51.00;;;;;;;;;;4974496;28;20433;-90
2021/12/15 03:54:48;;;;;;;46.50;40.33;;;;;;;;;;4975217;28;20455;-90
2021/12/15 03:57:15;;;;;;;54.83;46.20;;;;;;;;;;4975761;28;20852;-89
2021/12/15 03:59:45;;;;;;;41.27;36.80;;;;;;;;;;4975376;28;20465;-89
2021/12/15 04:02:14;;;;;;;61.67;50.63;;;;;;;;;;4975493;28;20883;-89
2021/12/15 04:04:42;;;;;;;53.03;44.53;;;;;;;;;;4975468;28;20444;-90
2021/12/15 04:07:12;;;;;;;61.20;46.77;;;;;;;;;;4975433;28;20443;-89
2021/12/15 04:09:39;;;;;;;66.10;51.30;;;;;;;;;;4975294;28;20421;-89
2021/12/15 04:12:07;;;;;;;63.93;48.90;;;;;;;;;;4975077;28;20470;-87
2021/12/15 04:14:43;;;;;;;78.33;51.23;;;;;;;;;;4987026;28;20994;-89
2021/12/15 04:17:26;;;;;;;71.50;52.67;;;;;;;;;;4977117;28;20443;-89
2021/12/15 04:19:56;;;;;;;67.90;47.40;;;;;;;;;;4994498;28;20933;-89
2021/12/15 04:22:24;;;;;;;65.07;47.47;;;;;;;;;;4994559;28;20449;-90
2021/12/15 04:24:52;;;;;;;61.90;44.33;;;;;;;;;;4993902;28;20460;-89
2021/12/15 04:27:20;;;;;;;65.07;49.93;;;;;;;;;;4994048;28;21038;-89
2021/12/15 04:29:48;;;;;;;66.67;50.37;;;;;;;;;;4994205;28;20897;-89
2021/12/15 04:32:21;;;;;;;62.60;48.70;;;;;;;;;;4994518;28;20426;-89
2021/12/15 04:34:49;;;;;;;65.20;50.33;;;;;;;;;;4994128;28;20507;-89
2021/12/15 04:37:16;;;;;;;65.10;47.30;;;;;;;;;;4994262;28;20471;-89
2021/12/15 04:39:43;;;;;;;70.70;50.27;;;;;;;;;;4994077;28;20423;-89
2021/12/15 04:42:12;;;;;;;63.17;43.60;;;;;;;;;;4993955;28;20468;-90
2021/12/15 04:44:40;;;;;;;57.27;43.00;;;;;;;;;;4993943;28;20454;-90
2021/12/15 04:47:10;;;;;;;55.70;44.37;;;;;;;;;;4994172;28;20442;-89
2021/12/15 04:49:40;;;;;;;64.57;47.07;;;;;;;;;;4993590;28;20458;-89
2021/12/15 04:52:09;;;;;;;71.97;51.00;;;;;;;;;;4993783;28;20911;-89
2021/12/15 04:54:36;;;;;;;69.90;48.67;;;;;;;;;;4976584;28;20469;-89
2021/12/15 04:57:04;;;;;;;66.63;49.50;;;;;;;;;;4976764;28;20460;-89
2021/12/15 04:59:32;;;;;;;57.57;45.30;;;;;;;;;;4993334;28;20424;-90
2021/12/15 05:02:00;;;;;;;59.33;46.07;;;;;;;;;;4994110;28;20790;-89
2021/12/15 05:04:28;;;;;;;66.43;48.97;;;;;;;;;;4993695;28;20411;-89
2021/12/15 05:06:57;;;;;;;62.17;45.90;;;;;;;;;;4994072;28;20443;-89
2021/12/15 05:09:25;;;;;;;63.80;47.97;;;;;;;;;;4994059;28;20438;-89
2021/12/15 05:11:54;;;;;;;67.07;49.23;;;;;;;;;;4994101;28;20858;-90
2021/12/15 05:14:22;;;;;;;72.30;47.80;;;;;;;;;;4993642;28;20989;-89
2021/12/15 05:16:50;;;;;;;65.07;49.53;;;;;;;;;;4993881;28;20433;-89
2021/12/15 05:19:18;;;;;;;60.77;47.00;;;;;;;;;;4994128;28;20422;-90
2021/12/15 05:21:46;;;;;;;57.07;44.53;;;;;;;;;;4993764;28;20423;-90
2021/12/15 05:24:30;;;;;;;66.53;48.70;;;;;;;;;;4993722;28;20536;-90
2021/12/15 05:26:57;;;;;;;66.10;46.70;;;;;;;;;;4993973;28;20449;-89
2021/12/15 05:29:25;;;;;;;59.83;47.27;;;;;;;;;;4993837;28;20426;-90
2021/12/15 05:31:52;;;;;;;63.13;47.23;;;;;;;;;;4993621;28;20438;-90
2021/12/15 05:34:20;;;;;;;60.63;48.10;;;;;;;;;;4976352;28;20467;-90
2021/12/15 05:36:48;;;;;;;58.77;44.90;;;;;;;;;;4993857;28;20434;-90
2021/12/15 05:39:17;;;;;;;59.23;45.80;;;;;;;;;;4993610;28;20442;-89
2021/12/15 05:41:44;;;;;;;56.73;44.53;;;;;;;;;;4993636;28;20424;-89
2021/12/15 05:44:12;;;;;;;51.77;42.40;;;;;;;;;;4993482;28;20468;-90
2021/12/15 05:46:39;;;;;;;55.33;43.33;;;;;;;;;;4976115;28;20460;-89
2021/12/15 05:49:07;;;;;;;52.90;42.87;;;;;;;;;;4993719;28;20420;-89
2021/12/15 05:51:36;;;;;;;50.13;39.53;;;;;;;;;;4993685;28;20420;-90
2021/12/15 05:54:04;;;;;;;50.33;41.93;;;;;;;;;;4993366;28;20502;-89
2021/12/15 05:56:33;;;;;;;46.80;41.20;;;;;;;;;;4993733;28;20444;-90
2021/12/15 05:59:01;;;;;;;47.73;42.43;;;;;;;;;;4993659;28;20797;-90
2021/12/15 06:01:28;;;;;;;51.40;42.50;;;;;;;;;;4993493;28;20448;-90
2021/12/15 06:03:56;;;;;;;44.57;40.00;;;;;;;;;;4993371;28;20457;-89
2021/12/15 06:06:24;;;;;;;44.43;39.40;;;;;;;;;;4993457;28;20411;-90
2021/12/15 06:08:51;;;;;;;50.73;41.63;;;;;;;;;;4993446;28;20460;-88
2021/12/15 06:11:18;;;;;;;51.17;39.10;;;;;;;;;;4993717;28;20448;-88
2021/12/15 06:13:50;;;;;;;43.83;38.90;;;;;;;;;;4996210;28;20476;-88
2021/12/15 06:16:18;;;;;;;44.70;39.67;;;;;;;;;;4996657;28;20499;-89
2021/12/15 06:18:47;;;;;;;52.30;38.83;;;;;;;;;;4996917;28;20531;-89
2021/12/15 06:21:14;;;;;;;46.03;39.00;;;;;;;;;;5002560;28;20453;-89
2021/12/15 06:23:42;;;;;;;49.40;38.70;;;;;;;;;;5016081;28;20460;-89
2021/12/15 06:26:10;;;;;;;49.70;40.13;;;;;;;;;;5016232;28;20786;-89
2021/12/15 06:28:38;;;;;;;50.03;38.40;;;;;;;;;;4998741;28;20920;-89
2021/12/15 06:31:08;;;;;;;52.90;40.00;;;;;;;;;;5015961;28;20432;-89
2021/12/15 06:33:38;;;;;;;54.40;40.10;;;;;;;;;;5016322;28;20480;-89
2021/12/15 06:36:06;;;;;;;44.70;37.30;;;;;;;;;;5016074;28;20445;-90
2021/12/15 06:38:35;;;;;;;45.67;40.10;;;;;;;;;;5016566;28;20448;-91
2021/12/15 06:41:02;;;;;;;46.90;38.80;;;;;;;;;;5016382;28;20407;-90
2021/12/15 06:43:30;;;;;;;55.03;39.73;;;;;;;;;;5016006;28;20419;-90
2021/12/15 06:46:12;;;;;;;51.63;38.53;;;;;;;;;;5015923;28;20441;-90
2021/12/15 06:59:41;;;;;;;41.80;37.30;;;;;;;;;;5015865;28;20445;-91
2021/12/15 07:02:08;;;;;;;47.97;37.40;;;;;;;;;;4998593;28;20432;-88
2021/12/15 07:07:40;;;;;;;42.17;37.70;;;;;;;;;;5016087;28;20438;-92
2021/12/15 07:10:09;;;;;;;40.87;36.17;;;;;;;;;;5015617;28;20459;-91
2021/12/15 07:12:36;;;;;;;42.90;38.27;;;;;;;;;;5002756;28;20427;-91
2021/12/15 07:15:04;;;;;;;41.63;36.00;;;;;;;;;;4997913;28;20874;-90
2021/12/15 07:17:32;;;;;;;41.50;37.40;;;;;;;;;;4998046;28;20454;-90
2021/12/15 07:20:27;;;;;;;41.80;37.40;;;;;;;;;;5014783;28;20456;-96
2021/12/15 07:22:55;;;;;;;41.30;37.00;;;;;;;;;;4996925;28;20473;-96
2021/12/15 07:25:23;;;;;;;41.00;36.00;;;;;;;;;;4996326;28;20412;-85
2021/12/15 07:27:51;;;;;;;40.10;35.73;;;;;;;;;;4978094;28;20434;-86
2021/12/15 07:30:19;;;;;;;37.57;33.70;;;;;;;;;;4995291;28;20412;-86
2021/12/15 07:32:46;;;;;;;43.20;38.80;;;;;;;;;;4995022;28;20445;-86
2021/12/15 07:35:15;;;;;;;45.13;39.53;;;;;;;;;;4994283;28;20496;-84
2021/12/15 07:37:42;;;;;;;41.27;37.07;;;;;;;;;;4994590;28;20540;-84
2021/12/15 07:40:18;;;;;;;40.83;36.60;;;;;;;;;;4994699;28;20430;-84
2021/12/15 07:42:56;;;;;;;43.87;39.27;;;;;;;;;;4994797;28;20504;-84
2021/12/15 07:45:23;;;;;;;43.00;38.33;;;;;;;;;;4994499;28;20539;-84
2021/12/15 07:47:51;;;;;;;36.03;32.43;;;;;;;;;;4994974;28;20532;-85
2021/12/15 07:50:19;;;;;;;38.93;34.80;;;;;;;;;;4995798;28;20453;-85
2021/12/15 07:52:47;;;;;;;42.47;38.00;;;;;;;;;;4995141;28;20456;-85
2021/12/15 07:55:15;;;;;;;44.43;39.80;;;;;;;;;;4994585;28;20488;-85
2021/12/15 07:57:43;;;;;;;42.43;36.43;;;;;;;;;;4994488;28;20430;-84
2021/12/15 08:00:11;;;;;;;41.20;36.80;;;;;;;;;;4994394;28;20436;-84
2021/12/15 08:02:39;;;;;;;43.43;38.73;;;;;;;;;;4994312;28;20412;-84
2021/12/15 08:05:07;;;;;;;43.77;39.03;;;;;;;;;;4993837;28;20415;-85
2021/12/15 08:07:34;;;;;;;40.93;36.13;;;;;;;;;;4976455;28;20428;-83
2021/12/15 08:10:03;;;;;;;51.87;41.63;;;;;;;;;;4993588;28;20852;-82
2021/12/15 08:12:32;;;;;;;39.20;35.13;;;;;;;;;;4976424;28;20441;-83
2021/12/15 08:14:59;;;;;;;41.93;37.53;;;;;;;;;;4993512;28;20479;-85
2021/12/15 08:17:27;;;;;;;39.30;35.20;;;;;;;;;;4993759;28;20905;-89
2021/12/15 08:19:54;;;;;;;42.37;37.13;;;;;;;;;;4994575;28;20457;-92
2021/12/15 08:22:21;;;;;;;44.63;40.07;;;;;;;;;;5007829;28;20422;-91
2021/12/15 08:24:49;;;;;;;44.23;39.07;;;;;;;;;;5014389;28;20482;-93
2021/12/15 08:27:16;;;;;;;45.80;39.40;;;;;;;;;;4997595;28;20431;-92
2021/12/15 08:29:45;;;;;;;43.40;38.57;;;;;;;;;;5013051;28;20423;-83
2021/12/15 08:32:13;;;;;;;42.83;38.07;;;;;;;;;;5013153;28;20822;-83
2021/12/15 08:34:40;;;;;;;50.73;39.60;;;;;;;;;;5012069;28;20454;-80
2021/12/15 08:37:13;;;;;;;40.63;36.50;;;;;;;;;;5013238;28;20443;-83
2021/12/15 08:39:40;;;;;;;41.10;36.90;;;;;;;;;;5013119;28;20457;-84
2021/12/15 08:42:08;;;;;;;42.23;37.90;;;;;;;;;;5012759;28;20787;-83
2021/12/15 08:44:36;;;;;;;43.17;37.53;;;;;;;;;;5012665;28;20922;-84
2021/12/15 08:47:05;;;;;;;46.20;38.07;;;;;;;;;;5012654;28;20797;-84
2021/12/15 08:49:33;;;;;;;40.03;35.80;;;;;;;;;;5009976;28;20503;-84
2021/12/15 08:52:01;;;;;;;40.70;36.40;;;;;;;;;;4959727;28;20976;-83
2021/12/15 08:54:29;;;;;;;37.87;34.03;;;;;;;;;;4993383;28;20484;-84
2021/12/15 08:56:56;;;;;;;40.03;35.90;;;;;;;;;;4993136;28;20464;-84
2021/12/15 08:59:24;;;;;;;37.77;34.00;;;;;;;;;;4992591;28;20426;-83
2021/12/15 09:01:52;;;;;;;40.50;36.10;;;;;;;;;;4992946;28;20852;-83
2021/12/15 09:04:21;;;;;;;41.97;37.70;;;;;;;;;;4993051;28;20559;-91
2021/12/15 09:06:49;;;;;;;43.30;38.03;;;;;;;;;;4993270;28;20465;-81
2021/12/15 09:09:17;;;;;;;41.13;36.87;;;;;;;;;;4992303;28;20476;-81
2021/12/15 09:11:45;;;;;;;42.60;37.63;;;;;;;;;;4992658;28;20787;-82
2021/12/15 09:14:12;;;;;;;41.20;36.93;;;;;;;;;;4992199;28;20463;-81
2021/12/15 09:16:40;;;;;;;43.10;38.20;;;;;;;;;;4992549;28;20452;-81
2021/12/15 09:19:08;;;;;;;42.30;37.80;;;;;;;;;;4992515;28;20423;-81
2021/12/15 09:21:38;;;;;;;40.50;36.23;;;;;;;;;;4993071;28;20420;-86
2021/12/15 09:24:07;;;;;;;43.90;36.93;;;;;;;;;;4975677;28;20449;-81
2021/12/15 09:26:35;;;;;;;42.17;37.57;;;;;;;;;;5001390;28;20448;-82
2021/12/15 09:29:02;;;;;;;41.73;37.60;;;;;;;;;;4999459;28;20407;-82
2021/12/15 09:31:30;;;;;;;40.13;35.97;;;;;;;;;;4992807;28;20423;-81
2021/12/15 09:33:58;;;;;;;40.83;36.70;;;;;;;;;;4992433;28;20415;-82
2021/12/15 09:36:27;;;;;;;38.63;34.70;;;;;;;;;;4992357;28;20481;-85
2021/12/15 09:38:57;;;;;;;37.53;33.90;;;;;;;;;;4992466;28;20445;-82
2021/12/15 09:41:25;;;;;;;39.80;35.97;;;;;;;;;;4993901;28;20456;-86
2021/12/15 09:43:55;;;;;;;41.70;37.40;;;;;;;;;;4993818;28;20438;-83
2021/12/15 09:57:45;;;;;;;38.50;34.57;;;;;;;;;;4999262;28;20402;-81
2021/12/15 10:03:02;;;;;;;38.80;34.57;;;;;;;;;;5000140;28;20406;-81
2021/12/15 10:19:29;;;;;;;39.63;35.63;;;;;;;;;;5005880;28;20938;-93
2021/12/15 10:22:06;;;;;;;36.77;32.73;;;;;;;;;;5001433;28;20430;-96
2021/12/15 10:24:35;;;;;;;38.73;34.87;;;;;;;;;;5002919;28;20438;-95
2021/12/15 10:27:07;;;;;;;38.83;35.20;;;;;;;;;;4999942;28;20441;-95
2021/12/15 10:29:35;;;;;;;39.57;35.80;;;;;;;;;;5004545;28;20440;-96
2021/12/15 10:32:04;;;;;;;38.47;34.57;;;;;;;;;;5007443;28;20460;-96
2021/12/15 10:34:32;;;;;;;33.37;30.20;;;;;;;;;;4982061;28;20460;-94
2021/12/15 10:37:00;;;;;;;38.67;34.63;;;;;;;;;;5001337;28;20430;-96
2021/12/15 10:39:28;;;;;;;39.60;35.40;;;;;;;;;;5001011;28;20526;-95
2021/12/15 10:41:56;;;;;;;39.83;35.75;;;;;;;;;;5010139;28;20516;-96
2021/12/15 10:44:28;;;;;;;39.50;35.30;;;;;;;;;;5048281;23;20245;-96
2021/12/15 10:46:59;;;;;;;39.67;35.47;;;;;;;;;;5033015;28;20437;-96
2021/12/15 10:49:29;;;;;;;39.70;35.50;;;;;;;;;;5020704;28;20437;-82
2021/12/15 10:51:59;;;;;;;40.00;35.87;;;;;;;;;;5016924;28;20440;-93
2021/12/15 10:54:28;;;;;;;39.57;35.43;;;;;;;;;;5016918;28;20446;-94
2021/12/15 10:56:57;;;;;;;38.40;34.70;;;;;;;;;;5016307;28;20522;-91
2021/12/15 10:59:27;;;;;;;39.67;35.47;;;;;;;;;;5017398;28;20450;-88
2021/12/15 11:01:59;;;;;;;38.07;34.13;;;;;;;;;;5017270;28;20926;-88
2021/12/15 11:04:30;;;;;;;36.77;33.07;;;;;;;;;;5018569;28;20472;-93
2021/12/15 11:07:18;;;;;;;38.30;34.37;;;;;;;;;;5018054;28;20447;-94
2021/12/15 11:09:47;;;;;;;36.67;33.00;;;;;;;;;;5011260;28;20460;-94
2021/12/15 11:12:16;;;;;;;37.93;34.33;;;;;;;;;;5014563;28;20429;-85
2021/12/15 11:14:46;;;;;;;35.17;31.63;;;;;;;;;;5014656;28;20415;-83
2021/12/15 11:17:15;;;;;;;37.00;33.30;;;;;;;;;;5014097;28;20448;-83
2021/12/15 11:19:48;;;;;;;40.20;36.10;;;;;;;;;;5014158;28;20439;-81
2021/12/15 11:22:35;;;;;;;39.27;35.07;;;;;;;;;;5013574;28;20876;-82
2021/12/15 11:25:03;;;;;;;37.93;34.10;;;;;;;;;;5013842;28;20434;-82
2021/12/15 11:27:30;;;;;;;39.97;35.80;;;;;;;;;;5013510;28;20429;-82
2021/12/15 11:30:00;;;;;;;39.37;35.07;;;;;;;;;;5013618;28;20421;-81
2021/12/15 11:32:37;;;;;;;38.27;34.47;;;;;;;;;;5012897;28;20459;-82
2021/12/15 11:35:06;;;;;;;36.73;33.13;;;;;;;;;;5013200;28;20803;-82
2021/12/15 11:37:51;;;;;;;39.37;35.67;;;;;;;;;;5015366;28;20938;-81
2021/12/15 11:40:24;;;;;;;38.20;34.37;;;;;;;;;;5022439;28;20443;-80
2021/12/15 11:42:51;;;;;;;41.00;36.80;;;;;;;;;;5021124;28;20422;-81
2021/12/15 11:45:20;;;;;;;39.30;35.30;;;;;;;;;;5023132;28;20815;-81
2021/12/15 11:47:48;;;;;;;40.20;35.90;;;;;;;;;;5014388;28;20418;-80
2021/12/15 11:50:18;;;;;;;38.17;34.37;;;;;;;;;;5012497;28;20464;-84
2021/12/15 11:52:47;;;;;;;39.37;35.17;;;;;;;;;;5013818;28;20423;-88
2021/12/15 11:55:25;;;;;;;38.67;34.80;;;;;;;;;;5013976;28;20469;-82
2021/12/15 11:57:53;;;;;;;37.63;34.00;;;;;;;;;;5014177;28;20411;-81
2021/12/15 12:00:23;;;;;;;39.53;35.43;;;;;;;;;;5013772;28;20415;-82
2021/12/15 12:02:54;;;;;;;38.77;34.90;;;;;;;;;;5014141;28;20439;-81
2021/12/15 12:05:24;;;;;;;37.57;33.93;;;;;;;;;;5014774;28;20423;-81
2021/12/15 12:07:54;;;;;;;40.00;36.20;;;;;;;;;;5014558;28;20423;-81
2021/12/15 12:10:25;;;;;;;38.73;34.97;;;;;;;;;;5013229;28;20459;-82
2021/12/15 12:12:57;;;;;;;38.83;35.03;;;;;;;;;;5017307;28;20430;-81
2021/12/15 12:15:27;;;;;;;36.70;33.23;;;;;;;;;;5018557;28;20944;-82
2021/12/15 12:17:56;;;;;;;38.47;34.40;;;;;;;;;;5020128;28;20498;-82
2021/12/15 12:20:25;;;;;;;34.83;31.53;;;;;;;;;;5026822;28;20411;-81
2021/12/15 12:22:54;;;;;;;36.53;32.90;;;;;;;;;;5026920;28;20422;-82
2021/12/15 12:25:24;;;;;;;36.43;32.83;;;;;;;;;;5026204;28;20431;-81
2021/12/15 12:27:52;;;;;;;35.33;31.93;;;;;;;;;;5029866;28;20545;-82
2021/12/15 12:30:22;;;;;;;39.50;35.23;;;;;;;;;;5028040;28;20452;-82
2021/12/15 12:32:56;;;;;;;39.20;35.50;;;;;;;;;;5030510;28;20491;-81
2021/12/15 12:35:25;;;;;;;37.30;33.80;;;;;;;;;;5025065;28;20492;-80
2021/12/15 12:37:53;;;;;;;37.87;34.37;;;;;;;;;;5016587;28;20455;-81
2021/12/15 12:40:23;;;;;;;38.80;34.97;;;;;;;;;;5025055;28;20434;-81
2021/12/15 12:42:51;;;;;;;39.27;35.47;;;;;;;;;;5026758;28;20449;-83
2021/12/15 12:45:23;;;;;;;39.13;35.33;;;;;;;;;;5021560;28;20564;-84
2021/12/15 12:48:10;;;;;;;52.43;47.13;;;;;;;;;;5025411;28;20512;-84
2021/12/15 12:59:25;;;;;;;40.80;36.63;;;;;;;;;;5029096;28;20508;-84
2021/12/15 13:01:54;;;;;;;43.27;38.97;;;;;;;;;;5024528;28;20502;-85
2021/12/15 13:04:23;;;;;;;50.83;46.20;;;;;;;;;;5024791;28;20403;-85
2021/12/15 13:06:51;;;;;;;65.70;59.70;;;;;;;;;;5022990;28;20486;-85
2021/12/15 13:09:25;;;;;;;47.80;43.13;;;;;;;;;;5022575;28;20431;-84
2021/12/15 13:11:52;;;;;;;42.17;38.40;;;;;;;;;;5020674;28;20916;-85
2021/12/15 13:14:22;;;;;;;36.87;33.33;;;;;;;;;;5029913;28;20432;-85
2021/12/15 13:19:37;;;;;;;38.77;34.97;;;;;;;;;;5032042;28;20419;-85
2021/12/15 13:22:19;;;;;;;38.30;34.37;;;;;;;;;;5024035;28;20486;-85
2021/12/15 13:30:26;;;;;;;38.23;34.40;;;;;;;;;;5018000;28;20465;-83
2021/12/15 13:33:02;;;;;;;40.77;35.20;;;;;;;;;;5017893;28;20438;-84
2021/12/15 13:35:36;;;;;;;42.03;37.90;;;;;;;;;;5016253;28;20411;-84
2021/12/15 13:38:03;;;;;;;45.37;40.90;;;;;;;;;;5019113;28;20431;-83
2021/12/15 13:40:50;;;;;;;38.53;34.50;;;;;;;;;;5018109;28;20501;-86
2021/12/15 13:43:34;;;;;;;38.37;34.07;;;;;;;;;;5017886;28;20505;-82
2021/12/15 13:46:01;;;;;;;31.20;28.23;;;;;;;;;;5016656;28;20498;-83
2021/12/15 13:48:43;;;;;;;43.90;37.30;;;;;;;;;;5017269;28;20440;-83
2021/12/15 13:51:12;;;;;;;43.00;35.07;;;;;;;;;;5016420;28;20462;-83
2021/12/15 13:53:39;;;;;;;41.13;36.80;;;;;;;;;;5017378;28;20422;-82
2021/12/15 13:56:07;;;;;;;43.13;38.60;;;;;;;;;;5021134;28;20455;-83
2021/12/15 13:58:34;;;;;;;41.30;36.70;;;;;;;;;;5017815;28;20474;-83
2021/12/15 14:01:04;;;;;;;42.73;37.90;;;;;;;;;;5018317;28;20454;-83
2021/12/15 14:03:33;;;;;;;34.03;30.43;;;;;;;;;;5019529;28;20423;-83
2021/12/15 14:06:08;;;;;;;59.17;49.93;;;;;;;;;;5018430;28;20422;-84
2021/12/15 14:08:39;;;;;;;52.07;42.27;;;;;;;;;;5017791;28;20471;-83
2021/12/15 14:11:17;;;;;;;140.10;111.73;;;;;;;;;;5017407;28;20445;-83
2021/12/15 14:13:48;;;;;;;49.07;41.93;;;;;;;;;;5017458;28;20473;-83
2021/12/15 14:16:16;;;;;;;56.60;46.77;;;;;;;;;;5016716;28;20470;-83
2021/12/15 14:18:43;;;;;;;113.77;101.97;;;;;;;;;;5017052;28;20792;-83
2021/12/15 14:21:12;;;;;;;66.27;59.43;;;;;;;;;;5018222;28;20547;-86
2021/12/15 14:23:43;;;;;;;78.03;56.60;;;;;;;;;;5019433;28;20430;-82
2021/12/15 14:26:12;;;;;;;81.87;53.57;;;;;;;;;;5017559;28;20440;-86
2021/12/15 14:28:42;;;;;;;54.30;42.13;;;;;;;;;;5016621;28;20478;-86
2021/12/15 14:31:11;;;;;;;47.80;41.33;;;;;;;;;;5016834;28;20451;-88
2021/12/15 14:33:39;;;;;;;54.60;42.07;;;;;;;;;;5018415;28;20469;-87
2021/12/15 14:36:08;;;;;;;62.23;44.90;;;;;;;;;;5019207;28;20528;-88
2021/12/15 14:38:38;;;;;;;56.53;41.93;;;;;;;;;;5019510;28;20438;-92
2021/12/15 14:41:08;;;;;;;53.17;41.37;;;;;;;;;;5017238;28;20451;-89
2021/12/15 14:43:37;;;;;;;61.13;43.93;;;;;;;;;;5018705;28;20411;-89
2021/12/15 14:46:05;;;;;;;53.80;41.10;;;;;;;;;;5017686;28;20473;-89
2021/12/15 14:48:32;;;;;;;48.33;39.23;;;;;;;;;;5018294;28;20840;-89
2021/12/15 14:50:59;;;;;;;54.13;42.83;;;;;;;;;;5018035;28;20823;-87
2021/12/15 14:53:27;;;;;;;60.20;43.60;;;;;;;;;;5017548;28;20801;-89
2021/12/15 14:55:54;;;;;;;69.73;43.73;;;;;;;;;;5016979;28;20425;-89
2021/12/15 14:58:26;;;;;;;57.10;42.50;;;;;;;;;;5017441;28;20449;-89
2021/12/15 15:00:55;;;;;;;50.90;41.40;;;;;;;;;;5018325;28;20530;-89
2021/12/15 15:03:23;;;;;;;54.17;44.10;;;;;;;;;;5001537;28;20522;-89
2021/12/15 15:05:51;;;;;;;55.87;46.03;;;;;;;;;;5018436;28;20445;-88
2021/12/15 15:08:19;;;;;;;48.67;38.53;;;;;;;;;;5018623;28;20457;-89
2021/12/15 15:10:47;;;;;;;59.60;45.40;;;;;;;;;;5018767;28;20946;-89
2021/12/15 15:13:18;;;;;;;56.90;43.60;;;;;;;;;;5017190;28;20411;-89
2021/12/15 15:15:50;;;;;;;61.93;44.17;;;;;;;;;;5016406;28;20453;-88
2021/12/15 15:18:23;;;;;;;56.63;45.33;;;;;;;;;;5017072;28;20529;-88
2021/12/15 15:20:53;;;;;;;55.57;44.60;;;;;;;;;;5017149;28;20998;-88
2021/12/15 15:23:22;;;;;;;53.07;42.10;;;;;;;;;;5016671;28;20426;-88
2021/12/15 15:25:52;;;;;;;50.20;38.97;;;;;;;;;;5017662;28;20433;-88
2021/12/15 15:28:21;;;;;;;60.87;42.20;;;;;;;;;;5015980;28;20426;-87
2021/12/15 15:30:50;;;;;;;56.73;45.00;;;;;;;;;;5015741;28;20506;-86
2021/12/15 15:33:19;;;;;;;64.70;45.97;;;;;;;;;;5017756;28;20447;-91
2021/12/15 15:35:48;;;;;;;62.93;44.93;;;;;;;;;;5018796;28;20787;-90
2021/12/15 15:38:17;;;;;;;61.30;43.00;;;;;;;;;;5017235;28;20426;-95
2021/12/15 15:40:46;;;;;;;52.77;43.90;;;;;;;;;;5018222;28;20456;-87
2021/12/15 15:43:15;;;;;;;59.87;45.67;;;;;;;;;;5016291;28;20425;-88
2021/12/15 15:45:44;;;;;;;55.47;44.80;;;;;;;;;;5016912;28;20567;-85
2021/12/15 15:48:17;;;;;;;53.77;42.10;;;;;;;;;;5017445;28;20498;-86
2021/12/15 15:50:46;;;;;;;56.17;44.13;;;;;;;;;;5020814;28;20449;-86
2021/12/15 15:53:14;;;;;;;60.33;45.07;;;;;;;;;;5018570;28;20419;-87